sensor_id;sensor_type;location;lat;lon;timestamp;P1;durP1;ratioP1;P2;durP2;ratioP2
13289;SDS011;6713;50.954;5.310;2024-02-26T00:00:46;3.17;;;1.50;;
13289;SDS011;6713;50.954;5.310;2024-02-26T00:03:14;2.17;;;1.77;;
13289;SDS011;6713;50.954;5.310;2024-02-26T00:05:40;1.77;;;1.63;;
13289;SDS011;6713;50.954;5.310;2024-02-26T00:08:06;1.87;;;1.40;;
13289;SDS011;6713;50.954;5.310;2024-02-26T00:10:33;1.50;;;1.33;;
13289;SDS011;6713;50.954;5.310;2024-02-26T00:12:59;2.93;;;1.70;;
13289;SDS011;6713;50.954;5.310;2024-02-26T00:15:26;2.30;;;1.43;;
13289;SDS011;6713;50.954;5.310;2024-02-26T00:17:53;4.37;;;1.37;;
13289;SDS011;6713;50.954;5.310;2024-02-26T00:20:20;2.07;;;1.30;;
13289;SDS011;6713;50.954;5.310;2024-02-26T00:22:47;3.40;;;1.37;;
13289;SDS011;6713;50.954;5.310;2024-02-26T00:25:13;3.47;;;1.50;;
13289;SDS011;6713;50.954;5.310;2024-02-26T00:27:40;1.20;;;1.10;;
13289;SDS011;6713;50.954;5.310;2024-02-26T00:30:07;2.37;;;1.47;;
13289;SDS011;6713;50.954;5.310;2024-02-26T00:32:34;2.30;;;1.20;;
13289;SDS011;6713;50.954;5.310;2024-02-26T00:35:00;4.50;;;1.33;;
13289;SDS011;6713;50.954;5.310;2024-02-26T00:37:28;3.50;;;1.17;;
13289;SDS011;6713;50.954;5.310;2024-02-26T00:39:54;1.57;;;1.47;;
13289;SDS011;6713;50.954;5.310;2024-02-26T00:42:21;1.37;;;1.17;;
13289;SDS011;6713;50.954;5.310;2024-02-26T00:44:47;3.90;;;1.40;;
13289;SDS011;6713;50.954;5.310;2024-02-26T00:47:13;2.47;;;1.37;;
13289;SDS011;6713;50.954;5.310;2024-02-26T00:49:40;1.90;;;1.20;;
13289;SDS011;6713;50.954;5.310;2024-02-26T00:52:06;1.90;;;1.60;;
13289;SDS011;6713;50.954;5.310;2024-02-26T00:54:34;1.87;;;1.47;;
13289;SDS011;6713;50.954;5.310;2024-02-26T00:57:00;1.77;;;1.40;;
13289;SDS011;6713;50.954;5.310;2024-02-26T00:59:27;1.47;;;1.37;;
13289;SDS011;6713;50.954;5.310;2024-02-26T01:01:53;1.70;;;1.60;;
13289;SDS011;6713;50.954;5.310;2024-02-26T01:04:20;1.37;;;1.27;;
13289;SDS011;6713;50.954;5.310;2024-02-26T01:06:46;1.90;;;1.70;;
13289;SDS011;6713;50.954;5.310;2024-02-26T01:09:13;2.77;;;1.53;;
13289;SDS011;6713;50.954;5.310;2024-02-26T01:11:40;1.43;;;1.33;;
13289;SDS011;6713;50.954;5.310;2024-02-26T01:14:07;1.50;;;1.40;;
13289;SDS011;6713;50.954;5.310;2024-02-26T01:16:33;1.43;;;1.27;;
13289;SDS011;6713;50.954;5.310;2024-02-26T01:19:00;3.60;;;1.90;;
13289;SDS011;6713;50.954;5.310;2024-02-26T01:21:26;1.40;;;1.30;;
13289;SDS011;6713;50.954;5.310;2024-02-26T01:23:54;1.10;;;1.00;;
13289;SDS011;6713;50.954;5.310;2024-02-26T01:26:20;1.30;;;1.20;;
13289;SDS011;6713;50.954;5.310;2024-02-26T01:28:49;1.30;;;1.20;;
13289;SDS011;6713;50.954;5.310;2024-02-26T01:31:15;1.93;;;1.17;;
13289;SDS011;6713;50.954;5.310;2024-02-26T01:33:42;1.93;;;1.07;;
13289;SDS011;6713;50.954;5.310;2024-02-26T01:36:08;3.00;;;1.50;;
13289;SDS011;6713;50.954;5.310;2024-02-26T01:38:34;1.40;;;1.30;;
13289;SDS011;6713;50.954;5.310;2024-02-26T01:41:01;1.53;;;1.40;;
13289;SDS011;6713;50.954;5.310;2024-02-26T01:43:27;1.93;;;1.47;;
13289;SDS011;6713;50.954;5.310;2024-02-26T01:45:55;2.10;;;1.50;;
13289;SDS011;6713;50.954;5.310;2024-02-26T01:48:22;1.33;;;1.23;;
13289;SDS011;6713;50.954;5.310;2024-02-26T01:50:47;1.30;;;1.20;;
13289;SDS011;6713;50.954;5.310;2024-02-26T01:53:14;1.30;;;1.20;;
13289;SDS011;6713;50.954;5.310;2024-02-26T01:55:40;2.23;;;1.47;;
13289;SDS011;6713;50.954;5.310;2024-02-26T01:58:07;1.83;;;1.73;;
13289;SDS011;6713;50.954;5.310;2024-02-26T02:00:34;2.10;;;1.50;;
13289;SDS011;6713;50.954;5.310;2024-02-26T02:03:02;3.77;;;1.70;;
13289;SDS011;6713;50.954;5.310;2024-02-26T02:05:29;1.33;;;1.23;;
13289;SDS011;6713;50.954;5.310;2024-02-26T02:07:57;1.30;;;1.20;;
13289;SDS011;6713;50.954;5.310;2024-02-26T02:10:23;1.23;;;1.10;;
13289;SDS011;6713;50.954;5.310;2024-02-26T02:12:50;1.57;;;1.47;;
13289;SDS011;6713;50.954;5.310;2024-02-26T02:15:17;3.37;;;1.40;;
13289;SDS011;6713;50.954;5.310;2024-02-26T02:17:43;1.17;;;1.07;;
13289;SDS011;6713;50.954;5.310;2024-02-26T02:20:14;1.20;;;1.10;;
13289;SDS011;6713;50.954;5.310;2024-02-26T02:22:42;2.97;;;1.27;;
13289;SDS011;6713;50.954;5.310;2024-02-26T02:25:08;1.33;;;1.00;;
13289;SDS011;6713;50.954;5.310;2024-02-26T02:27:35;1.17;;;1.13;;
13289;SDS011;6713;50.954;5.310;2024-02-26T02:30:01;1.13;;;1.07;;
13289;SDS011;6713;50.954;5.310;2024-02-26T02:32:28;1.00;;;1.00;;
13289;SDS011;6713;50.954;5.310;2024-02-26T02:34:55;1.20;;;1.10;;
13289;SDS011;6713;50.954;5.310;2024-02-26T02:37:22;1.60;;;1.30;;
13289;SDS011;6713;50.954;5.310;2024-02-26T02:39:50;1.60;;;1.50;;
13289;SDS011;6713;50.954;5.310;2024-02-26T02:42:16;1.50;;;1.10;;
13289;SDS011;6713;50.954;5.310;2024-02-26T02:44:42;1.50;;;1.40;;
13289;SDS011;6713;50.954;5.310;2024-02-26T02:47:09;1.63;;;1.33;;
13289;SDS011;6713;50.954;5.310;2024-02-26T02:49:36;1.50;;;1.40;;
13289;SDS011;6713;50.954;5.310;2024-02-26T02:52:02;2.47;;;1.30;;
13289;SDS011;6713;50.954;5.310;2024-02-26T02:54:29;1.50;;;1.40;;
13289;SDS011;6713;50.954;5.310;2024-02-26T02:56:57;1.80;;;1.40;;
13289;SDS011;6713;50.954;5.310;2024-02-26T02:59:23;1.83;;;1.00;;
13289;SDS011;6713;50.954;5.310;2024-02-26T03:01:49;2.10;;;1.33;;
13289;SDS011;6713;50.954;5.310;2024-02-26T03:04:16;4.27;;;1.60;;
13289;SDS011;6713;50.954;5.310;2024-02-26T03:06:42;1.60;;;1.50;;
13289;SDS011;6713;50.954;5.310;2024-02-26T03:09:09;2.20;;;1.50;;
13289;SDS011;6713;50.954;5.310;2024-02-26T03:11:35;1.50;;;1.40;;
13289;SDS011;6713;50.954;5.310;2024-02-26T03:14:03;1.30;;;1.20;;
13289;SDS011;6713;50.954;5.310;2024-02-26T03:16:30;1.43;;;1.17;;
13289;SDS011;6713;50.954;5.310;2024-02-26T03:18:56;1.60;;;1.10;;
13289;SDS011;6713;50.954;5.310;2024-02-26T03:21:23;2.43;;;1.40;;
13289;SDS011;6713;50.954;5.310;2024-02-26T03:23:50;2.13;;;1.30;;
13289;SDS011;6713;50.954;5.310;2024-02-26T03:26:16;1.90;;;1.67;;
13289;SDS011;6713;50.954;5.310;2024-02-26T03:28:42;1.20;;;1.03;;
13289;SDS011;6713;50.954;5.310;2024-02-26T03:31:10;1.50;;;1.23;;
13289;SDS011;6713;50.954;5.310;2024-02-26T03:33:37;1.40;;;1.30;;
13289;SDS011;6713;50.954;5.310;2024-02-26T03:36:04;1.87;;;1.13;;
13289;SDS011;6713;50.954;5.310;2024-02-26T03:38:32;1.63;;;1.40;;
13289;SDS011;6713;50.954;5.310;2024-02-26T03:40:59;1.53;;;1.43;;
13289;SDS011;6713;50.954;5.310;2024-02-26T03:43:25;1.90;;;1.70;;
13289;SDS011;6713;50.954;5.310;2024-02-26T03:45:52;1.97;;;1.40;;
13289;SDS011;6713;50.954;5.310;2024-02-26T03:48:19;1.97;;;1.53;;
13289;SDS011;6713;50.954;5.310;2024-02-26T03:50:45;1.70;;;1.60;;
13289;SDS011;6713;50.954;5.310;2024-02-26T03:53:12;1.67;;;1.50;;
13289;SDS011;6713;50.954;5.310;2024-02-26T03:55:38;1.90;;;1.73;;
13289;SDS011;6713;50.954;5.310;2024-02-26T03:58:06;3.57;;;1.90;;
13289;SDS011;6713;50.954;5.310;2024-02-26T04:00:33;3.17;;;2.10;;
13289;SDS011;6713;50.954;5.310;2024-02-26T04:02:59;2.20;;;1.80;;
13289;SDS011;6713;50.954;5.310;2024-02-26T04:05:27;1.77;;;1.67;;
13289;SDS011;6713;50.954;5.310;2024-02-26T04:07:54;1.90;;;1.70;;
13289;SDS011;6713;50.954;5.310;2024-02-26T04:10:20;1.67;;;1.57;;
13289;SDS011;6713;50.954;5.310;2024-02-26T04:12:47;1.43;;;1.33;;
13289;SDS011;6713;50.954;5.310;2024-02-26T04:15:13;2.77;;;2.20;;
13289;SDS011;6713;50.954;5.310;2024-02-26T04:17:40;1.90;;;1.80;;
13289;SDS011;6713;50.954;5.310;2024-02-26T04:20:06;2.10;;;2.00;;
13289;SDS011;6713;50.954;5.310;2024-02-26T04:22:34;2.40;;;2.20;;
13289;SDS011;6713;50.954;5.310;2024-02-26T04:25:01;2.00;;;1.90;;
13289;SDS011;6713;50.954;5.310;2024-02-26T04:27:28;2.53;;;2.33;;
13289;SDS011;6713;50.954;5.310;2024-02-26T04:29:54;2.77;;;2.43;;
13289;SDS011;6713;50.954;5.310;2024-02-26T04:32:21;2.40;;;2.20;;
13289;SDS011;6713;50.954;5.310;2024-02-26T04:34:47;2.27;;;2.17;;
13289;SDS011;6713;50.954;5.310;2024-02-26T04:37:14;2.60;;;2.40;;
13289;SDS011;6713;50.954;5.310;2024-02-26T04:39:41;2.80;;;2.40;;
13289;SDS011;6713;50.954;5.310;2024-02-26T04:42:08;3.07;;;2.43;;
13289;SDS011;6713;50.954;5.310;2024-02-26T04:44:34;4.33;;;2.20;;
13289;SDS011;6713;50.954;5.310;2024-02-26T04:47:01;3.57;;;2.33;;
13289;SDS011;6713;50.954;5.310;2024-02-26T04:49:27;2.80;;;2.60;;
13289;SDS011;6713;50.954;5.310;2024-02-26T04:51:54;2.77;;;2.57;;
13289;SDS011;6713;50.954;5.310;2024-02-26T04:54:20;2.63;;;2.43;;
13289;SDS011;6713;50.954;5.310;2024-02-26T04:56:48;3.03;;;2.27;;
13289;SDS011;6713;50.954;5.310;2024-02-26T04:59:14;2.63;;;2.20;;
13289;SDS011;6713;50.954;5.310;2024-02-26T05:01:41;5.40;;;2.83;;
13289;SDS011;6713;50.954;5.310;2024-02-26T05:04:07;2.83;;;2.63;;
13289;SDS011;6713;50.954;5.310;2024-02-26T05:06:34;2.60;;;2.40;;
13289;SDS011;6713;50.954;5.310;2024-02-26T05:09:02;2.70;;;2.47;;
13289;SDS011;6713;50.954;5.310;2024-02-26T05:11:29;2.70;;;2.50;;
13289;SDS011;6713;50.954;5.310;2024-02-26T05:13:56;2.70;;;2.50;;
13289;SDS011;6713;50.954;5.310;2024-02-26T05:16:23;2.60;;;2.40;;
13289;SDS011;6713;50.954;5.310;2024-02-26T05:18:52;2.33;;;2.13;;
13289;SDS011;6713;50.954;5.310;2024-02-26T05:21:18;3.00;;;2.47;;
13289;SDS011;6713;50.954;5.310;2024-02-26T05:23:45;3.17;;;2.87;;
13289;SDS011;6713;50.954;5.310;2024-02-26T05:26:11;3.03;;;2.73;;
13289;SDS011;6713;50.954;5.310;2024-02-26T05:28:37;3.70;;;2.60;;
13289;SDS011;6713;50.954;5.310;2024-02-26T05:31:06;3.30;;;3.03;;
13289;SDS011;6713;50.954;5.310;2024-02-26T05:33:32;3.17;;;2.87;;
13289;SDS011;6713;50.954;5.310;2024-02-26T05:35:59;3.50;;;3.20;;
13289;SDS011;6713;50.954;5.310;2024-02-26T05:38:29;4.57;;;3.30;;
13289;SDS011;6713;50.954;5.310;2024-02-26T05:40:56;3.43;;;3.13;;
13289;SDS011;6713;50.954;5.310;2024-02-26T05:43:23;3.43;;;3.10;;
13289;SDS011;6713;50.954;5.310;2024-02-26T05:45:50;3.43;;;3.13;;
13289;SDS011;6713;50.954;5.310;2024-02-26T05:48:18;4.10;;;3.50;;
13289;SDS011;6713;50.954;5.310;2024-02-26T05:50:45;4.33;;;3.10;;
13289;SDS011;6713;50.954;5.310;2024-02-26T05:53:11;5.10;;;3.50;;
13289;SDS011;6713;50.954;5.310;2024-02-26T05:55:38;4.63;;;3.43;;
13289;SDS011;6713;50.954;5.310;2024-02-26T05:58:04;5.67;;;3.27;;
13289;SDS011;6713;50.954;5.310;2024-02-26T06:00:31;2.97;;;2.77;;
13289;SDS011;6713;50.954;5.310;2024-02-26T06:02:57;3.50;;;3.20;;
13289;SDS011;6713;50.954;5.310;2024-02-26T06:05:25;3.77;;;3.47;;
13289;SDS011;6713;50.954;5.310;2024-02-26T06:07:51;3.47;;;3.17;;
13289;SDS011;6713;50.954;5.310;2024-02-26T06:10:18;4.07;;;3.67;;
13289;SDS011;6713;50.954;5.310;2024-02-26T06:12:46;4.80;;;3.90;;
13289;SDS011;6713;50.954;5.310;2024-02-26T06:15:12;4.10;;;3.70;;
13289;SDS011;6713;50.954;5.310;2024-02-26T06:17:39;4.43;;;3.70;;
13289;SDS011;6713;50.954;5.310;2024-02-26T06:20:06;4.20;;;3.80;;
13289;SDS011;6713;50.954;5.310;2024-02-26T06:22:38;4.70;;;4.20;;
13289;SDS011;6713;50.954;5.310;2024-02-26T06:25:04;7.53;;;4.10;;
13289;SDS011;6713;50.954;5.310;2024-02-26T06:27:31;5.57;;;4.53;;
13289;SDS011;6713;50.954;5.310;2024-02-26T06:29:58;4.83;;;4.37;;
13289;SDS011;6713;50.954;5.310;2024-02-26T06:32:24;4.67;;;4.20;;
13289;SDS011;6713;50.954;5.310;2024-02-26T06:34:52;3.97;;;3.57;;
13289;SDS011;6713;50.954;5.310;2024-02-26T06:37:19;4.60;;;4.13;;
13289;SDS011;6713;50.954;5.310;2024-02-26T06:39:47;3.87;;;3.57;;
13289;SDS011;6713;50.954;5.310;2024-02-26T06:42:13;4.37;;;3.43;;
13289;SDS011;6713;50.954;5.310;2024-02-26T06:44:40;3.97;;;3.67;;
13289;SDS011;6713;50.954;5.310;2024-02-26T06:47:06;3.93;;;3.50;;
13289;SDS011;6713;50.954;5.310;2024-02-26T06:49:32;5.90;;;3.60;;
13289;SDS011;6713;50.954;5.310;2024-02-26T06:51:59;4.37;;;3.97;;
13289;SDS011;6713;50.954;5.310;2024-02-26T06:54:25;3.47;;;3.07;;
13289;SDS011;6713;50.954;5.310;2024-02-26T06:56:53;3.80;;;3.50;;
13289;SDS011;6713;50.954;5.310;2024-02-26T06:59:19;3.43;;;3.13;;
13289;SDS011;6713;50.954;5.310;2024-02-26T07:01:46;3.97;;;3.07;;
13289;SDS011;6713;50.954;5.310;2024-02-26T07:04:12;3.57;;;3.30;;
13289;SDS011;6713;50.954;5.310;2024-02-26T07:06:39;4.33;;;2.97;;
13289;SDS011;6713;50.954;5.310;2024-02-26T07:09:06;4.67;;;3.70;;
13289;SDS011;6713;50.954;5.310;2024-02-26T07:11:33;3.30;;;3.10;;
13289;SDS011;6713;50.954;5.310;2024-02-26T07:14:00;4.67;;;3.40;;
13289;SDS011;6713;50.954;5.310;2024-02-26T07:16:27;4.40;;;3.47;;
13289;SDS011;6713;50.954;5.310;2024-02-26T07:18:53;3.53;;;3.23;;
13289;SDS011;6713;50.954;5.310;2024-02-26T07:21:20;3.83;;;3.50;;
13289;SDS011;6713;50.954;5.310;2024-02-26T07:23:46;3.67;;;3.47;;
13289;SDS011;6713;50.954;5.310;2024-02-26T07:26:12;4.27;;;3.87;;
13289;SDS011;6713;50.954;5.310;2024-02-26T07:28:39;3.73;;;3.17;;
13289;SDS011;6713;50.954;5.310;2024-02-26T07:31:07;4.10;;;3.70;;
13289;SDS011;6713;50.954;5.310;2024-02-26T07:33:33;4.40;;;3.97;;
13289;SDS011;6713;50.954;5.310;2024-02-26T07:36:00;4.33;;;3.87;;
13289;SDS011;6713;50.954;5.310;2024-02-26T07:38:26;4.73;;;4.33;;
13289;SDS011;6713;50.954;5.310;2024-02-26T07:40:52;5.50;;;4.57;;
13289;SDS011;6713;50.954;5.310;2024-02-26T07:43:19;5.63;;;4.67;;
13289;SDS011;6713;50.954;5.310;2024-02-26T07:45:45;5.13;;;4.63;;
13289;SDS011;6713;50.954;5.310;2024-02-26T07:48:13;5.13;;;4.63;;
13289;SDS011;6713;50.954;5.310;2024-02-26T07:50:39;3.67;;;3.37;;
13289;SDS011;6713;50.954;5.310;2024-02-26T07:53:06;5.40;;;4.90;;
13289;SDS011;6713;50.954;5.310;2024-02-26T07:55:33;5.33;;;4.83;;
13289;SDS011;6713;50.954;5.310;2024-02-26T07:57:59;4.80;;;4.40;;
13289;SDS011;6713;50.954;5.310;2024-02-26T08:00:26;4.50;;;4.10;;
13289;SDS011;6713;50.954;5.310;2024-02-26T08:02:52;4.70;;;4.30;;
13289;SDS011;6713;50.954;5.310;2024-02-26T08:05:20;6.33;;;4.50;;
13289;SDS011;6713;50.954;5.310;2024-02-26T08:07:46;4.50;;;4.10;;
13289;SDS011;6713;50.954;5.310;2024-02-26T08:10:13;5.00;;;4.50;;
13289;SDS011;6713;50.954;5.310;2024-02-26T08:12:39;5.97;;;4.90;;
13289;SDS011;6713;50.954;5.310;2024-02-26T08:15:06;5.10;;;4.60;;
13289;SDS011;6713;50.954;5.310;2024-02-26T08:17:33;5.67;;;5.17;;
13289;SDS011;6713;50.954;5.310;2024-02-26T08:19:59;5.57;;;5.03;;
13289;SDS011;6713;50.954;5.310;2024-02-26T08:22:27;5.47;;;4.97;;
13289;SDS011;6713;50.954;5.310;2024-02-26T08:24:53;5.23;;;4.83;;
13289;SDS011;6713;50.954;5.310;2024-02-26T08:27:20;5.40;;;4.90;;
13289;SDS011;6713;50.954;5.310;2024-02-26T08:29:46;5.40;;;5.00;;
13289;SDS011;6713;50.954;5.310;2024-02-26T08:32:12;5.67;;;5.17;;
13289;SDS011;6713;50.954;5.310;2024-02-26T08:34:39;5.87;;;5.33;;
13289;SDS011;6713;50.954;5.310;2024-02-26T08:37:05;5.40;;;5.00;;
13289;SDS011;6713;50.954;5.310;2024-02-26T08:39:33;5.03;;;4.53;;
13289;SDS011;6713;50.954;5.310;2024-02-26T08:42:00;5.20;;;4.80;;
13289;SDS011;6713;50.954;5.310;2024-02-26T08:44:26;5.17;;;4.77;;
13289;SDS011;6713;50.954;5.310;2024-02-26T08:46:53;5.87;;;5.37;;
13289;SDS011;6713;50.954;5.310;2024-02-26T08:49:19;5.57;;;5.07;;
13289;SDS011;6713;50.954;5.310;2024-02-26T08:51:48;5.90;;;5.10;;
13289;SDS011;6713;50.954;5.310;2024-02-26T08:54:14;6.07;;;5.57;;
13289;SDS011;6713;50.954;5.310;2024-02-26T08:56:42;6.73;;;5.67;;
13289;SDS011;6713;50.954;5.310;2024-02-26T08:59:08;5.77;;;5.27;;
13289;SDS011;6713;50.954;5.310;2024-02-26T09:01:35;6.40;;;5.43;;
13289;SDS011;6713;50.954;5.310;2024-02-26T09:04:01;4.33;;;3.93;;
13289;SDS011;6713;50.954;5.310;2024-02-26T09:06:28;5.43;;;5.03;;
13289;SDS011;6713;50.954;5.310;2024-02-26T09:08:55;5.33;;;4.83;;
13289;SDS011;6713;50.954;5.310;2024-02-26T09:11:21;5.43;;;4.90;;
13289;SDS011;6713;50.954;5.310;2024-02-26T09:13:49;5.47;;;4.97;;
13289;SDS011;6713;50.954;5.310;2024-02-26T09:16:15;6.63;;;5.00;;
13289;SDS011;6713;50.954;5.310;2024-02-26T09:18:42;4.63;;;4.20;;
13289;SDS011;6713;50.954;5.310;2024-02-26T09:21:12;4.87;;;4.47;;
13289;SDS011;6713;50.954;5.310;2024-02-26T09:23:38;6.40;;;5.13;;
13289;SDS011;6713;50.954;5.310;2024-02-26T09:26:05;4.13;;;3.73;;
13289;SDS011;6713;50.954;5.310;2024-02-26T09:28:32;5.03;;;4.63;;
13289;SDS011;6713;50.954;5.310;2024-02-26T09:31:03;4.90;;;4.53;;
13289;SDS011;6713;50.954;5.310;2024-02-26T09:33:30;4.53;;;4.13;;
13289;SDS011;6713;50.954;5.310;2024-02-26T09:35:56;5.00;;;4.17;;
13289;SDS011;6713;50.954;5.310;2024-02-26T09:38:23;6.10;;;3.80;;
13289;SDS011;6713;50.954;5.310;2024-02-26T09:40:49;4.40;;;4.00;;
13289;SDS011;6713;50.954;5.310;2024-02-26T09:43:16;4.30;;;3.90;;
13289;SDS011;6713;50.954;5.310;2024-02-26T09:45:43;4.80;;;4.40;;
13289;SDS011;6713;50.954;5.310;2024-02-26T09:48:11;4.17;;;3.87;;
13289;SDS011;6713;50.954;5.310;2024-02-26T09:50:39;4.07;;;3.67;;
13289;SDS011;6713;50.954;5.310;2024-02-26T09:53:06;4.23;;;3.93;;
13289;SDS011;6713;50.954;5.310;2024-02-26T09:55:35;6.00;;;5.40;;
13289;SDS011;6713;50.954;5.310;2024-02-26T09:58:01;5.30;;;4.90;;
13289;SDS011;6713;50.954;5.310;2024-02-26T10:00:30;5.70;;;5.20;;
13289;SDS011;6713;50.954;5.310;2024-02-26T10:02:58;5.37;;;4.77;;
13289;SDS011;6713;50.954;5.310;2024-02-26T10:05:28;7.13;;;6.53;;
13289;SDS011;6713;50.954;5.310;2024-02-26T10:07:55;6.50;;;6.00;;
13289;SDS011;6713;50.954;5.310;2024-02-26T10:10:22;6.40;;;5.90;;
13289;SDS011;6713;50.954;5.310;2024-02-26T10:12:49;6.20;;;5.70;;
13289;SDS011;6713;50.954;5.310;2024-02-26T10:15:15;6.10;;;5.60;;
13289;SDS011;6713;50.954;5.310;2024-02-26T10:17:42;6.07;;;5.57;;
13289;SDS011;6713;50.954;5.310;2024-02-26T10:20:12;6.77;;;6.27;;
13289;SDS011;6713;50.954;5.310;2024-02-26T10:22:41;6.60;;;5.70;;
13289;SDS011;6713;50.954;5.310;2024-02-26T10:25:07;6.50;;;6.00;;
13289;SDS011;6713;50.954;5.310;2024-02-26T10:27:34;6.40;;;5.90;;
13289;SDS011;6713;50.954;5.310;2024-02-26T10:30:02;6.33;;;5.83;;
13289;SDS011;6713;50.954;5.310;2024-02-26T10:32:29;5.50;;;5.00;;
13289;SDS011;6713;50.954;5.310;2024-02-26T10:34:55;6.50;;;6.00;;
13289;SDS011;6713;50.954;5.310;2024-02-26T10:37:22;6.77;;;6.17;;
13289;SDS011;6713;50.954;5.310;2024-02-26T10:39:49;6.20;;;5.70;;
13289;SDS011;6713;50.954;5.310;2024-02-26T10:42:16;6.67;;;6.07;;
13289;SDS011;6713;50.954;5.310;2024-02-26T10:44:44;6.97;;;5.87;;
13289;SDS011;6713;50.954;5.310;2024-02-26T10:47:13;6.73;;;6.13;;
13289;SDS011;6713;50.954;5.310;2024-02-26T10:49:44;7.27;;;6.57;;
13289;SDS011;6713;50.954;5.310;2024-02-26T10:52:11;7.03;;;6.43;;
13289;SDS011;6713;50.954;5.310;2024-02-26T10:54:38;6.90;;;6.30;;
13289;SDS011;6713;50.954;5.310;2024-02-26T10:57:08;7.60;;;7.00;;
13289;SDS011;6713;50.954;5.310;2024-02-26T10:59:34;7.73;;;7.13;;
13289;SDS011;6713;50.954;5.310;2024-02-26T11:02:01;6.53;;;6.03;;
13289;SDS011;6713;50.954;5.310;2024-02-26T11:04:28;9.27;;;8.57;;
13289;SDS011;6713;50.954;5.310;2024-02-26T11:06:56;7.47;;;6.87;;
13289;SDS011;6713;50.954;5.310;2024-02-26T11:09:23;8.13;;;7.43;;
13289;SDS011;6713;50.954;5.310;2024-02-26T11:11:50;8.73;;;8.03;;
13289;SDS011;6713;50.954;5.310;2024-02-26T11:14:21;7.60;;;6.90;;
13289;SDS011;6713;50.954;5.310;2024-02-26T11:16:47;8.33;;;7.73;;
13289;SDS011;6713;50.954;5.310;2024-02-26T11:19:14;7.37;;;6.80;;
13289;SDS011;6713;50.954;5.310;2024-02-26T11:21:41;8.50;;;7.80;;
13289;SDS011;6713;50.954;5.310;2024-02-26T11:24:08;7.80;;;7.20;;
13289;SDS011;6713;50.954;5.310;2024-02-26T11:26:36;7.97;;;7.23;;
13289;SDS011;6713;50.954;5.310;2024-02-26T11:29:04;7.53;;;6.93;;
13289;SDS011;6713;50.954;5.310;2024-02-26T11:31:36;7.47;;;6.87;;
13289;SDS011;6713;50.954;5.310;2024-02-26T11:34:03;7.03;;;6.53;;
13289;SDS011;6713;50.954;5.310;2024-02-26T11:36:29;8.20;;;7.53;;
13289;SDS011;6713;50.954;5.310;2024-02-26T11:38:56;7.33;;;6.83;;
13289;SDS011;6713;50.954;5.310;2024-02-26T11:41:22;6.93;;;6.40;;
13289;SDS011;6713;50.954;5.310;2024-02-26T11:43:49;7.20;;;6.53;;
13289;SDS011;6713;50.954;5.310;2024-02-26T11:46:24;6.47;;;5.90;;
13289;SDS011;6713;50.954;5.310;2024-02-26T11:48:52;6.53;;;6.03;;
13289;SDS011;6713;50.954;5.310;2024-02-26T11:51:23;6.83;;;6.33;;
13289;SDS011;6713;50.954;5.310;2024-02-26T11:53:50;7.10;;;6.60;;
13289;SDS011;6713;50.954;5.310;2024-02-26T11:56:21;7.40;;;6.70;;
13289;SDS011;6713;50.954;5.310;2024-02-26T11:58:47;7.13;;;6.63;;
13289;SDS011;6713;50.954;5.310;2024-02-26T12:04:01;6.97;;;6.27;;
13289;SDS011;6713;50.954;5.310;2024-02-26T12:06:27;7.93;;;7.33;;
13289;SDS011;6713;50.954;5.310;2024-02-26T12:08:54;7.97;;;7.27;;
13289;SDS011;6713;50.954;5.310;2024-02-26T12:11:21;8.33;;;7.63;;
13289;SDS011;6713;50.954;5.310;2024-02-26T12:13:48;7.50;;;6.90;;
13289;SDS011;6713;50.954;5.310;2024-02-26T12:18:56;8.07;;;7.37;;
13289;SDS011;6713;50.954;5.310;2024-02-26T12:21:24;7.60;;;7.00;;
13289;SDS011;6713;50.954;5.310;2024-02-26T12:23:51;7.27;;;6.67;;
13289;SDS011;6713;50.954;5.310;2024-02-26T12:26:18;6.27;;;5.77;;
13289;SDS011;6713;50.954;5.310;2024-02-26T12:28:46;8.00;;;7.33;;
13289;SDS011;6713;50.954;5.310;2024-02-26T12:31:12;6.53;;;5.90;;
13289;SDS011;6713;50.954;5.310;2024-02-26T12:33:39;6.60;;;6.07;;
13289;SDS011;6713;50.954;5.310;2024-02-26T12:36:05;6.60;;;6.10;;
13289;SDS011;6713;50.954;5.310;2024-02-26T12:38:34;6.47;;;5.87;;
13289;SDS011;6713;50.954;5.310;2024-02-26T12:41:02;5.90;;;5.40;;
13289;SDS011;6713;50.954;5.310;2024-02-26T12:43:29;6.13;;;5.70;;
13289;SDS011;6713;50.954;5.310;2024-02-26T12:45:56;5.77;;;5.37;;
13289;SDS011;6713;50.954;5.310;2024-02-26T12:48:22;6.10;;;5.60;;
13289;SDS011;6713;50.954;5.310;2024-02-26T12:50:48;6.87;;;6.37;;
13289;SDS011;6713;50.954;5.310;2024-02-26T12:53:15;6.20;;;5.70;;
13289;SDS011;6713;50.954;5.310;2024-02-26T12:55:42;6.10;;;5.70;;
13289;SDS011;6713;50.954;5.310;2024-02-26T12:58:09;5.97;;;5.43;;
13289;SDS011;6713;50.954;5.310;2024-02-26T13:00:36;5.43;;;5.03;;
13289;SDS011;6713;50.954;5.310;2024-02-26T13:03:02;6.67;;;6.17;;
13289;SDS011;6713;50.954;5.310;2024-02-26T13:05:29;6.00;;;5.60;;
13289;SDS011;6713;50.954;5.310;2024-02-26T13:07:56;6.37;;;5.80;;
13289;SDS011;6713;50.954;5.310;2024-02-26T13:10:23;5.83;;;5.43;;
13289;SDS011;6713;50.954;5.310;2024-02-26T13:12:51;6.70;;;6.20;;
13289;SDS011;6713;50.954;5.310;2024-02-26T13:15:18;5.40;;;5.00;;
13289;SDS011;6713;50.954;5.310;2024-02-26T13:17:45;6.10;;;5.60;;
13289;SDS011;6713;50.954;5.310;2024-02-26T13:20:11;5.30;;;4.90;;
13289;SDS011;6713;50.954;5.310;2024-02-26T13:22:38;5.93;;;4.80;;
13289;SDS011;6713;50.954;5.310;2024-02-26T13:25:05;6.23;;;5.73;;
13289;SDS011;6713;50.954;5.310;2024-02-26T13:27:32;5.90;;;5.40;;
13289;SDS011;6713;50.954;5.310;2024-02-26T13:30:04;6.00;;;5.50;;
13289;SDS011;6713;50.954;5.310;2024-02-26T13:32:32;9.00;;;5.43;;
13289;SDS011;6713;50.954;5.310;2024-02-26T13:35:03;6.70;;;6.10;;
13289;SDS011;6713;50.954;5.310;2024-02-26T13:37:30;6.17;;;5.63;;
13289;SDS011;6713;50.954;5.310;2024-02-26T13:39:56;6.57;;;6.07;;
13289;SDS011;6713;50.954;5.310;2024-02-26T13:42:23;7.80;;;6.53;;
13289;SDS011;6713;50.954;5.310;2024-02-26T13:44:49;8.00;;;7.30;;
13289;SDS011;6713;50.954;5.310;2024-02-26T13:47:17;7.27;;;6.67;;
13289;SDS011;6713;50.954;5.310;2024-02-26T13:49:43;7.47;;;6.80;;
13289;SDS011;6713;50.954;5.310;2024-02-26T13:52:10;7.60;;;6.90;;
13289;SDS011;6713;50.954;5.310;2024-02-26T13:54:36;7.07;;;6.37;;
13289;SDS011;6713;50.954;5.310;2024-02-26T13:57:04;7.50;;;6.90;;
13289;SDS011;6713;50.954;5.310;2024-02-26T13:59:30;6.33;;;5.73;;
13289;SDS011;6713;50.954;5.310;2024-02-26T14:01:57;6.97;;;6.37;;
13289;SDS011;6713;50.954;5.310;2024-02-26T14:04:24;8.00;;;7.30;;
13289;SDS011;6713;50.954;5.310;2024-02-26T14:06:51;9.07;;;7.80;;
13289;SDS011;6713;50.954;5.310;2024-02-26T14:09:17;8.43;;;7.53;;
13289;SDS011;6713;50.954;5.310;2024-02-26T14:11:44;8.43;;;7.80;;
13289;SDS011;6713;50.954;5.310;2024-02-26T14:14:11;9.23;;;8.30;;
13289;SDS011;6713;50.954;5.310;2024-02-26T14:16:37;8.87;;;7.97;;
13289;SDS011;6713;50.954;5.310;2024-02-26T14:19:04;9.20;;;8.30;;
13289;SDS011;6713;50.954;5.310;2024-02-26T14:21:31;8.87;;;8.17;;
13289;SDS011;6713;50.954;5.310;2024-02-26T14:23:58;10.17;;;9.17;;
13289;SDS011;6713;50.954;5.310;2024-02-26T14:26:24;9.83;;;8.90;;
13289;SDS011;6713;50.954;5.310;2024-02-26T14:28:51;9.27;;;8.37;;
13289;SDS011;6713;50.954;5.310;2024-02-26T14:31:17;7.73;;;7.03;;
13289;SDS011;6713;50.954;5.310;2024-02-26T14:33:43;9.07;;;8.17;;
13289;SDS011;6713;50.954;5.310;2024-02-26T14:36:10;10.57;;;9.67;;
13289;SDS011;6713;50.954;5.310;2024-02-26T14:38:38;8.57;;;7.80;;
13289;SDS011;6713;50.954;5.310;2024-02-26T14:41:05;9.33;;;8.53;;
13289;SDS011;6713;50.954;5.310;2024-02-26T14:43:31;9.57;;;8.67;;
13289;SDS011;6713;50.954;5.310;2024-02-26T14:46:00;9.00;;;8.20;;
13289;SDS011;6713;50.954;5.310;2024-02-26T14:48:26;7.80;;;7.00;;
13289;SDS011;6713;50.954;5.310;2024-02-26T14:50:53;8.33;;;7.53;;
13289;SDS011;6713;50.954;5.310;2024-02-26T14:53:19;8.50;;;7.70;;
13289;SDS011;6713;50.954;5.310;2024-02-26T14:55:47;8.17;;;7.47;;
13289;SDS011;6713;50.954;5.310;2024-02-26T14:58:13;8.10;;;7.37;;
13289;SDS011;6713;50.954;5.310;2024-02-26T15:00:40;7.60;;;6.90;;
13289;SDS011;6713;50.954;5.310;2024-02-26T15:03:06;7.80;;;7.13;;